sensor_id;sensor_type;location;lat;lon;timestamp;P1;durP1;ratioP1;P2;durP2;ratioP2
19826;SDS011;10074;52.018;4.726;2022-12-16T00:02:28;1.93;;;1.20;;
19826;SDS011;10074;52.018;4.726;2022-12-16T00:07:28;1.65;;;1.55;;
19826;SDS011;10074;52.018;4.726;2022-12-16T00:12:28;1.00;;;1.00;;
19826;SDS011;10074;52.018;4.726;2022-12-16T00:17:29;1.30;;;1.17;;
19826;SDS011;10074;52.018;4.726;2022-12-16T00:22:29;1.37;;;1.27;;
19826;SDS011;10074;52.018;4.726;2022-12-16T00:27:30;1.57;;;1.47;;
19826;SDS011;10074;52.018;4.726;2022-12-16T00:32:30;1.10;;;1.10;;
19826;SDS011;10074;52.018;4.726;2022-12-16T00:37:31;1.60;;;1.23;;
19826;SDS011;10074;52.018;4.726;2022-12-16T00:42:31;1.97;;;1.03;;
19826;SDS011;10074;52.018;4.726;2022-12-16T00:47:32;1.90;;;1.67;;
19826;SDS011;10074;52.018;4.726;2022-12-16T00:52:32;0.90;;;0.80;;
19826;SDS011;10074;52.018;4.726;2022-12-16T00:57:33;0.80;;;0.80;;
19826;SDS011;10074;52.018;4.726;2022-12-16T01:02:33;0.73;;;0.70;;
19826;SDS011;10074;52.018;4.726;2022-12-16T01:07:34;1.40;;;1.30;;
19826;SDS011;10074;52.018;4.726;2022-12-16T01:12:35;0.97;;;0.93;;
19826;SDS011;10074;52.018;4.726;2022-12-16T01:17:36;1.33;;;1.23;;
19826;SDS011;10074;52.018;4.726;2022-12-16T01:22:37;2.00;;;0.80;;
19826;SDS011;10074;52.018;4.726;2022-12-16T01:27:39;1.10;;;1.00;;
19826;SDS011;10074;52.018;4.726;2022-12-16T01:32:39;1.30;;;1.00;;
19826;SDS011;10074;52.018;4.726;2022-12-16T01:37:40;2.07;;;1.10;;
19826;SDS011;10074;52.018;4.726;2022-12-16T01:42:40;0.70;;;0.70;;
19826;SDS011;10074;52.018;4.726;2022-12-16T01:47:41;1.80;;;0.80;;
19826;SDS011;10074;52.018;4.726;2022-12-16T01:52:43;0.90;;;0.90;;
19826;SDS011;10074;52.018;4.726;2022-12-16T01:57:49;1.50;;;1.30;;
19826;SDS011;10074;52.018;4.726;2022-12-16T02:02:54;1.20;;;0.60;;
19826;SDS011;10074;52.018;4.726;2022-12-16T02:13:36;0.90;;;0.80;;
19826;SDS011;10074;52.018;4.726;2022-12-16T02:29:57;1.00;;;0.90;;
19826;SDS011;10074;52.018;4.726;2022-12-16T02:40:35;0.60;;;0.60;;
19826;SDS011;10074;52.018;4.726;2022-12-16T02:45:41;4.43;;;1.30;;
19826;SDS011;10074;52.018;4.726;2022-12-16T02:50:46;1.70;;;1.50;;
19826;SDS011;10074;52.018;4.726;2022-12-16T02:56:02;2.27;;;0.87;;
19826;SDS011;10074;52.018;4.726;2022-12-16T03:06:53;1.47;;;1.40;;
19826;SDS011;10074;52.018;4.726;2022-12-16T03:11:55;0.87;;;0.60;;
19826;SDS011;10074;52.018;4.726;2022-12-16T03:16:58;1.23;;;0.60;;
19826;SDS011;10074;52.018;4.726;2022-12-16T03:22:10;0.60;;;0.60;;
19826;SDS011;10074;52.018;4.726;2022-12-16T03:32:46;0.50;;;0.50;;
19826;SDS011;10074;52.018;4.726;2022-12-16T03:38:06;1.07;;;0.60;;
19826;SDS011;10074;52.018;4.726;2022-12-16T03:43:11;0.50;;;0.50;;
19826;SDS011;10074;52.018;4.726;2022-12-16T03:48:15;0.60;;;0.60;;
19826;SDS011;10074;52.018;4.726;2022-12-16T03:53:18;0.60;;;0.60;;
19826;SDS011;10074;52.018;4.726;2022-12-16T03:58:18;1.37;;;0.60;;
19826;SDS011;10074;52.018;4.726;2022-12-16T04:03:19;0.77;;;0.60;;
19826;SDS011;10074;52.018;4.726;2022-12-16T04:08:21;1.20;;;1.00;;
19826;SDS011;10074;52.018;4.726;2022-12-16T04:13:22;1.43;;;1.00;;
19826;SDS011;10074;52.018;4.726;2022-12-16T04:18:41;0.80;;;0.80;;
19826;SDS011;10074;52.018;4.726;2022-12-16T04:24:01;0.40;;;0.40;;
19826;SDS011;10074;52.018;4.726;2022-12-16T04:29:19;0.67;;;0.67;;
19826;SDS011;10074;52.018;4.726;2022-12-16T04:34:20;2.25;;;1.30;;
19826;SDS011;10074;52.018;4.726;2022-12-16T04:39:28;0.50;;;0.50;;
19826;SDS011;10074;52.018;4.726;2022-12-16T04:44:47;0.90;;;0.90;;
19826;SDS011;10074;52.018;4.726;2022-12-16T04:50:05;0.60;;;0.60;;
19826;SDS011;10074;52.018;4.726;2022-12-16T04:55:24;0.40;;;0.40;;
19826;SDS011;10074;52.018;4.726;2022-12-16T05:00:44;0.60;;;0.60;;
19826;SDS011;10074;52.018;4.726;2022-12-16T05:06:04;0.47;;;0.47;;
19826;SDS011;10074;52.018;4.726;2022-12-16T05:11:23;1.03;;;0.57;;
19826;SDS011;10074;52.018;4.726;2022-12-16T05:16:42;0.57;;;0.50;;
19826;SDS011;10074;52.018;4.726;2022-12-16T05:22:02;0.40;;;0.33;;
19826;SDS011;10074;52.018;4.726;2022-12-16T05:27:21;1.27;;;1.10;;
19826;SDS011;10074;52.018;4.726;2022-12-16T05:32:40;0.90;;;0.90;;
19826;SDS011;10074;52.018;4.726;2022-12-16T05:37:59;0.83;;;0.60;;
19826;SDS011;10074;52.018;4.726;2022-12-16T05:43:19;0.40;;;0.40;;
19826;SDS011;10074;52.018;4.726;2022-12-16T05:48:38;0.60;;;0.53;;
19826;SDS011;10074;52.018;4.726;2022-12-16T05:53:57;0.53;;;0.53;;
19826;SDS011;10074;52.018;4.726;2022-12-16T05:59:16;0.30;;;0.30;;
19826;SDS011;10074;52.018;4.726;2022-12-16T06:04:35;0.77;;;0.63;;
19826;SDS011;10074;52.018;4.726;2022-12-16T06:09:54;0.50;;;0.50;;
19826;SDS011;10074;52.018;4.726;2022-12-16T06:15:13;1.20;;;1.03;;
19826;SDS011;10074;52.018;4.726;2022-12-16T06:20:32;0.80;;;0.80;;
19826;SDS011;10074;52.018;4.726;2022-12-16T06:25:51;0.83;;;0.80;;
19826;SDS011;10074;52.018;4.726;2022-12-16T06:31:10;1.33;;;0.73;;
19826;SDS011;10074;52.018;4.726;2022-12-16T06:36:31;1.43;;;0.53;;
19826;SDS011;10074;52.018;4.726;2022-12-16T06:41:50;0.77;;;0.77;;
19826;SDS011;10074;52.018;4.726;2022-12-16T06:47:09;0.63;;;0.40;;
19826;SDS011;10074;52.018;4.726;2022-12-16T06:52:28;1.40;;;0.60;;
19826;SDS011;10074;52.018;4.726;2022-12-16T06:57:48;0.83;;;0.50;;
19826;SDS011;10074;52.018;4.726;2022-12-16T07:03:14;0.90;;;0.90;;
19826;SDS011;10074;52.018;4.726;2022-12-16T07:08:33;0.57;;;0.57;;
19826;SDS011;10074;52.018;4.726;2022-12-16T07:13:52;0.50;;;0.50;;
19826;SDS011;10074;52.018;4.726;2022-12-16T07:19:12;6.33;;;0.60;;
19826;SDS011;10074;52.018;4.726;2022-12-16T07:24:30;0.53;;;0.53;;
19826;SDS011;10074;52.018;4.726;2022-12-16T07:29:49;1.10;;;0.73;;
19826;SDS011;10074;52.018;4.726;2022-12-16T07:35:08;0.53;;;0.50;;
19826;SDS011;10074;52.018;4.726;2022-12-16T07:40:27;0.50;;;0.50;;
19826;SDS011;10074;52.018;4.726;2022-12-16T07:45:46;0.50;;;0.50;;
19826;SDS011;10074;52.018;4.726;2022-12-16T07:51:05;0.57;;;0.57;;
19826;SDS011;10074;52.018;4.726;2022-12-16T07:56:24;0.40;;;0.40;;
19826;SDS011;10074;52.018;4.726;2022-12-16T08:01:43;0.83;;;0.63;;
19826;SDS011;10074;52.018;4.726;2022-12-16T08:07:02;0.80;;;0.80;;
19826;SDS011;10074;52.018;4.726;2022-12-16T08:12:22;0.80;;;0.80;;
19826;SDS011;10074;52.018;4.726;2022-12-16T08:17:46;0.30;;;0.30;;
19826;SDS011;10074;52.018;4.726;2022-12-16T08:23:06;0.40;;;0.40;;
19826;SDS011;10074;52.018;4.726;2022-12-16T08:28:25;1.33;;;0.93;;
19826;SDS011;10074;52.018;4.726;2022-12-16T08:33:44;0.40;;;0.40;;
19826;SDS011;10074;52.018;4.726;2022-12-16T08:39:03;2.13;;;0.70;;
19826;SDS011;10074;52.018;4.726;2022-12-16T08:44:22;0.30;;;0.30;;
19826;SDS011;10074;52.018;4.726;2022-12-16T08:49:41;0.50;;;0.50;;
19826;SDS011;10074;52.018;4.726;2022-12-16T08:55:00;0.60;;;0.50;;
19826;SDS011;10074;52.018;4.726;2022-12-16T09:00:19;1.23;;;0.50;;
19826;SDS011;10074;52.018;4.726;2022-12-16T09:05:38;0.40;;;0.40;;
19826;SDS011;10074;52.018;4.726;2022-12-16T09:11:00;2.30;;;0.60;;
19826;SDS011;10074;52.018;4.726;2022-12-16T09:16:19;0.40;;;0.40;;
19826;SDS011;10074;52.018;4.726;2022-12-16T09:21:38;1.07;;;0.97;;
19826;SDS011;10074;52.018;4.726;2022-12-16T09:26:57;1.27;;;0.60;;
19826;SDS011;10074;52.018;4.726;2022-12-16T09:32:16;0.63;;;0.50;;
19826;SDS011;10074;52.018;4.726;2022-12-16T09:37:35;0.50;;;0.50;;
19826;SDS011;10074;52.018;4.726;2022-12-16T09:42:57;0.90;;;0.50;;
19826;SDS011;10074;52.018;4.726;2022-12-16T09:48:27;15.17;;;1.07;;
19826;SDS011;10074;52.018;4.726;2022-12-16T09:53:58;0.70;;;0.50;;
19826;SDS011;10074;52.018;4.726;2022-12-16T09:59:38;1.23;;;0.97;;
19826;SDS011;10074;52.018;4.726;2022-12-16T10:04:59;0.50;;;0.40;;
19826;SDS011;10074;52.018;4.726;2022-12-16T10:16:09;0.40;;;0.40;;
19826;SDS011;10074;52.018;4.726;2022-12-16T10:22:05;0.50;;;0.50;;
19826;SDS011;10074;52.018;4.726;2022-12-16T10:27:31;0.50;;;0.50;;
19826;SDS011;10074;52.018;4.726;2022-12-16T10:33:03;0.47;;;0.47;;
19826;SDS011;10074;52.018;4.726;2022-12-16T10:43:56;0.70;;;0.70;;
19826;SDS011;10074;52.018;4.726;2022-12-16T10:49:16;1.13;;;0.90;;
19826;SDS011;10074;52.018;4.726;2022-12-16T10:54:39;1.23;;;0.73;;
19826;SDS011;10074;52.018;4.726;2022-12-16T11:00:09;2.13;;;1.67;;
19826;SDS011;10074;52.018;4.726;2022-12-16T11:05:31;0.40;;;0.40;;
19826;SDS011;10074;52.018;4.726;2022-12-16T11:10:51;0.57;;;0.57;;
19826;SDS011;10074;52.018;4.726;2022-12-16T11:16:20;1.50;;;1.03;;
19826;SDS011;10074;52.018;4.726;2022-12-16T11:21:39;0.40;;;0.40;;
19826;SDS011;10074;52.018;4.726;2022-12-16T11:27:00;0.60;;;0.60;;
19826;SDS011;10074;52.018;4.726;2022-12-16T11:32:24;0.50;;;0.50;;
19826;SDS011;10074;52.018;4.726;2022-12-16T11:37:45;1.07;;;0.80;;
19826;SDS011;10074;52.018;4.726;2022-12-16T11:43:07;0.40;;;0.40;;
19826;SDS011;10074;52.018;4.726;2022-12-16T11:54:16;0.57;;;0.57;;
19826;SDS011;10074;52.018;4.726;2022-12-16T11:59:41;0.70;;;0.70;;
19826;SDS011;10074;52.018;4.726;2022-12-16T12:05:10;0.47;;;0.40;;
19826;SDS011;10074;52.018;4.726;2022-12-16T12:16:08;1.10;;;1.00;;
19826;SDS011;10074;52.018;4.726;2022-12-16T12:21:46;0.50;;;0.50;;
19826;SDS011;10074;52.018;4.726;2022-12-16T12:33:11;0.50;;;0.50;;
19826;SDS011;10074;52.018;4.726;2022-12-16T12:39:18;1.17;;;0.40;;
19826;SDS011;10074;52.018;4.726;2022-12-16T12:50:28;0.93;;;0.77;;
19826;SDS011;10074;52.018;4.726;2022-12-16T13:01:24;0.73;;;0.70;;
19826;SDS011;10074;52.018;4.726;2022-12-16T13:06:47;5.97;;;1.53;;
19826;SDS011;10074;52.018;4.726;2022-12-16T13:17:25;0.40;;;0.40;;
19826;SDS011;10074;52.018;4.726;2022-12-16T13:22:45;0.30;;;0.30;;
19826;SDS011;10074;52.018;4.726;2022-12-16T13:28:14;0.40;;;0.40;;
19826;SDS011;10074;52.018;4.726;2022-12-16T13:33:39;1.00;;;0.87;;
19826;SDS011;10074;52.018;4.726;2022-12-16T13:39:22;0.40;;;0.40;;
19826;SDS011;10074;52.018;4.726;2022-12-16T13:50:33;0.40;;;0.40;;
19826;SDS011;10074;52.018;4.726;2022-12-16T13:55:58;0.80;;;0.70;;
19826;SDS011;10074;52.018;4.726;2022-12-16T14:01:20;0.30;;;0.30;;
19826;SDS011;10074;52.018;4.726;2022-12-16T14:06:45;0.40;;;0.30;;
19826;SDS011;10074;52.018;4.726;2022-12-16T14:12:06;0.90;;;0.90;;
19826;SDS011;10074;52.018;4.726;2022-12-16T14:17:36;0.60;;;0.50;;
19826;SDS011;10074;52.018;4.726;2022-12-16T14:28:49;0.57;;;0.50;;
19826;SDS011;10074;52.018;4.726;2022-12-16T14:39:38;0.67;;;0.50;;
19826;SDS011;10074;52.018;4.726;2022-12-16T14:44:57;0.63;;;0.53;;
19826;SDS011;10074;52.018;4.726;2022-12-16T14:50:21;0.50;;;0.50;;
19826;SDS011;10074;52.018;4.726;2022-12-16T14:55:44;2.53;;;1.40;;
19826;SDS011;10074;52.018;4.726;2022-12-16T15:06:40;0.30;;;0.30;;
19826;SDS011;10074;52.018;4.726;2022-12-16T15:12:01;0.57;;;0.40;;
19826;SDS011;10074;52.018;4.726;2022-12-16T15:17:20;0.30;;;0.30;;
19826;SDS011;10074;52.018;4.726;2022-12-16T15:22:43;2.30;;;0.50;;
19826;SDS011;10074;52.018;4.726;2022-12-16T15:28:18;0.70;;;0.70;;
19826;SDS011;10074;52.018;4.726;2022-12-16T15:33:41;0.30;;;0.30;;
19826;SDS011;10074;52.018;4.726;2022-12-16T15:39:00;0.40;;;0.40;;
19826;SDS011;10074;52.018;4.726;2022-12-16T15:44:23;0.97;;;0.40;;
19826;SDS011;10074;52.018;4.726;2022-12-16T15:49:44;0.40;;;0.40;;
19826;SDS011;10074;52.018;4.726;2022-12-16T15:55:27;0.33;;;0.33;;
19826;SDS011;10074;52.018;4.726;2022-12-16T16:00:55;0.53;;;0.53;;
19826;SDS011;10074;52.018;4.726;2022-12-16T16:06:21;0.73;;;0.60;;
19826;SDS011;10074;52.018;4.726;2022-12-16T16:11:42;0.40;;;0.40;;
19826;SDS011;10074;52.018;4.726;2022-12-16T16:17:17;0.40;;;0.40;;
19826;SDS011;10074;52.018;4.726;2022-12-16T16:22:39;0.87;;;0.87;;
19826;SDS011;10074;52.018;4.726;2022-12-16T16:27:58;0.90;;;0.90;;
19826;SDS011;10074;52.018;4.726;2022-12-16T16:33:17;0.50;;;0.40;;
19826;SDS011;10074;52.018;4.726;2022-12-16T16:38:36;2.63;;;0.57;;
19826;SDS011;10074;52.018;4.726;2022-12-16T16:43:55;0.70;;;0.70;;
19826;SDS011;10074;52.018;4.726;2022-12-16T16:49:24;0.40;;;0.40;;
19826;SDS011;10074;52.018;4.726;2022-12-16T16:54:47;0.57;;;0.53;;
19826;SDS011;10074;52.018;4.726;2022-12-16T17:00:08;0.50;;;0.50;;
19826;SDS011;10074;52.018;4.726;2022-12-16T17:05:27;0.40;;;0.40;;
19826;SDS011;10074;52.018;4.726;2022-12-16T17:10:46;1.23;;;0.80;;
19826;SDS011;10074;52.018;4.726;2022-12-16T17:16:07;0.50;;;0.50;;
19826;SDS011;10074;52.018;4.726;2022-12-16T17:21:28;0.67;;;0.67;;
19826;SDS011;10074;52.018;4.726;2022-12-16T17:26:47;0.40;;;0.40;;
19826;SDS011;10074;52.018;4.726;2022-12-16T17:32:06;0.43;;;0.43;;
19826;SDS011;10074;52.018;4.726;2022-12-16T17:37:24;0.73;;;0.60;;
19826;SDS011;10074;52.018;4.726;2022-12-16T17:42:43;1.00;;;0.70;;
19826;SDS011;10074;52.018;4.726;2022-12-16T17:48:02;0.50;;;0.50;;
19826;SDS011;10074;52.018;4.726;2022-12-16T17:53:21;0.37;;;0.37;;
19826;SDS011;10074;52.018;4.726;2022-12-16T17:58:40;0.70;;;0.70;;
19826;SDS011;10074;52.018;4.726;2022-12-16T18:03:59;5.30;;;1.00;;
19826;SDS011;10074;52.018;4.726;2022-12-16T18:09:18;0.93;;;0.60;;
19826;SDS011;10074;52.018;4.726;2022-12-16T18:14:37;0.97;;;0.97;;
19826;SDS011;10074;52.018;4.726;2022-12-16T18:19:56;1.47;;;0.97;;
19826;SDS011;10074;52.018;4.726;2022-12-16T18:25:15;1.30;;;1.20;;
19826;SDS011;10074;52.018;4.726;2022-12-16T18:30:35;2.33;;;1.20;;
19826;SDS011;10074;52.018;4.726;2022-12-16T18:35:54;1.10;;;0.80;;
19826;SDS011;10074;52.018;4.726;2022-12-16T18:41:17;0.90;;;0.90;;
19826;SDS011;10074;52.018;4.726;2022-12-16T18:46:37;0.83;;;0.80;;
19826;SDS011;10074;52.018;4.726;2022-12-16T18:51:56;2.53;;;2.33;;
19826;SDS011;10074;52.018;4.726;2022-12-16T18:57:15;1.03;;;1.03;;
19826;SDS011;10074;52.018;4.726;2022-12-16T19:02:34;2.17;;;1.63;;
19826;SDS011;10074;52.018;4.726;2022-12-16T19:07:52;2.40;;;1.77;;
19826;SDS011;10074;52.018;4.726;2022-12-16T19:13:12;2.20;;;1.60;;
19826;SDS011;10074;52.018;4.726;2022-12-16T19:18:32;2.20;;;1.43;;
19826;SDS011;10074;52.018;4.726;2022-12-16T19:23:51;1.37;;;1.23;;
19826;SDS011;10074;52.018;4.726;2022-12-16T19:29:10;1.50;;;1.40;;
19826;SDS011;10074;52.018;4.726;2022-12-16T19:34:29;1.93;;;1.77;;
19826;SDS011;10074;52.018;4.726;2022-12-16T19:39:48;1.80;;;1.53;;
19826;SDS011;10074;52.018;4.726;2022-12-16T19:45:07;1.60;;;1.50;;
19826;SDS011;10074;52.018;4.726;2022-12-16T19:50:26;2.53;;;2.33;;
19826;SDS011;10074;52.018;4.726;2022-12-16T19:55:58;2.57;;;2.37;;
19826;SDS011;10074;52.018;4.726;2022-12-16T20:01:18;2.07;;;1.87;;
19826;SDS011;10074;52.018;4.726;2022-12-16T20:06:37;2.07;;;1.97;;
19826;SDS011;10074;52.018;4.726;2022-12-16T20:11:56;2.20;;;1.83;;
19826;SDS011;10074;52.018;4.726;2022-12-16T20:17:15;3.03;;;2.13;;
19826;SDS011;10074;52.018;4.726;2022-12-16T20:22:34;2.53;;;2.33;;
19826;SDS011;10074;52.018;4.726;2022-12-16T20:27:53;3.63;;;2.73;;
19826;SDS011;10074;52.018;4.726;2022-12-16T20:33:13;4.77;;;3.30;;
19826;SDS011;10074;52.018;4.726;2022-12-16T20:38:32;2.37;;;2.17;;
19826;SDS011;10074;52.018;4.726;2022-12-16T20:43:51;4.67;;;3.43;;
19826;SDS011;10074;52.018;4.726;2022-12-16T20:49:10;3.37;;;3.07;;
19826;SDS011;10074;52.018;4.726;2022-12-16T20:54:29;4.40;;;3.33;;
19826;SDS011;10074;52.018;4.726;2022-12-16T20:59:48;3.50;;;3.20;;
19826;SDS011;10074;52.018;4.726;2022-12-16T21:05:07;3.30;;;2.93;;
19826;SDS011;10074;52.018;4.726;2022-12-16T21:10:26;2.77;;;2.57;;
19826;SDS011;10074;52.018;4.726;2022-12-16T21:15:45;4.23;;;3.37;;
19826;SDS011;10074;52.018;4.726;2022-12-16T21:21:04;4.23;;;3.20;;
19826;SDS011;10074;52.018;4.726;2022-12-16T21:26:23;3.63;;;2.93;;
19826;SDS011;10074;52.018;4.726;2022-12-16T21:31:42;5.50;;;3.33;;
19826;SDS011;10074;52.018;4.726;2022-12-16T21:37:01;4.67;;;4.27;;
19826;SDS011;10074;52.018;4.726;2022-12-16T21:42:20;3.40;;;2.97;;
19826;SDS011;10074;52.018;4.726;2022-12-16T21:47:39;3.90;;;3.17;;
19826;SDS011;10074;52.018;4.726;2022-12-16T21:52:58;4.13;;;3.63;;
19826;SDS011;10074;52.018;4.726;2022-12-16T21:58:17;2.80;;;2.60;;
19826;SDS011;10074;52.018;4.726;2022-12-16T22:03:36;5.53;;;3.47;;
19826;SDS011;10074;52.018;4.726;2022-12-16T22:08:55;3.67;;;3.37;;
19826;SDS011;10074;52.018;4.726;2022-12-16T22:14:14;4.37;;;3.87;;
19826;SDS011;10074;52.018;4.726;2022-12-16T22:19:33;2.83;;;2.60;;
19826;SDS011;10074;52.018;4.726;2022-12-16T22:24:52;3.67;;;3.20;;
19826;SDS011;10074;52.018;4.726;2022-12-16T22:30:11;3.60;;;3.23;;
19826;SDS011;10074;52.018;4.726;2022-12-16T22:35:30;3.73;;;3.43;;
19826;SDS011;10074;52.018;4.726;2022-12-16T22:40:53;7.73;;;4.17;;
19826;SDS011;10074;52.018;4.726;2022-12-16T22:46:16;3.10;;;2.67;;
19826;SDS011;10074;52.018;4.726;2022-12-16T22:51:35;4.30;;;2.60;;
19826;SDS011;10074;52.018;4.726;2022-12-16T22:56:54;3.57;;;3.27;;
19826;SDS011;10074;52.018;4.726;2022-12-16T23:02:13;6.83;;;3.07;;
19826;SDS011;10074;52.018;4.726;2022-12-16T23:07:31;3.53;;;3.23;;
19826;SDS011;10074;52.018;4.726;2022-12-16T23:12:50;3.50;;;3.17;;
19826;SDS011;10074;52.018;4.726;2022-12-16T23:18:09;14.40;;;3.00;;
19826;SDS011;10074;52.018;4.726;2022-12-16T23:23:28;3.50;;;2.90;;
19826;SDS011;10074;52.018;4.726;2022-12-16T23:28:48;3.33;;;2.80;;
19826;SDS011;10074;52.018;4.726;2022-12-16T23:34:08;4.27;;;3.20;;
19826;SDS011;10074;52.018;4.726;2022-12-16T23:39:27;5.60;;;3.83;;
19826;SDS011;10074;52.018;4.726;2022-12-16T23:44:46;3.20;;;2.90;;
19826;SDS011;10074;52.018;4.726;2022-12-16T23:50:05;3.40;;;3.10;;
19826;SDS011;10074;52.018;4.726;2022-12-16T23:55:24;3.00;;;2.70;;
